Terminal Aerodrome Forecast
Issued by NWS Billings, MT

Home | Current Version | Previous Version | Text Only | Print | Product List | Glossary Off
Versions: 1 2 3 4 5 6 7 8 9 10 11 12 13 14 15 16 17 18 19 20 21 22 23 24 25 26 27 28

000
FTUS45 KBYZ 280759 AAA
TAFMLS
TAF AMD
KMLS 280759Z 2808/2906 00000KT 1/4SM FG VV001
      TEMPO 2808/2812 2SM BR SCT001 BKN003
     FM281200 27006KT P6SM VCSH BKN090
     FM281800 30012KT P6SM VCTS BKN080CB
     FM290000 34011KT P6SM VCTS BKN080CB=

USA.gov is the U.S. government's official web portal to all federal, state and local government web resources and services.